Time;durP1;ratioP1;P1;durP2;ratioP2;P2;SDS_P1;SDS_P2;PMS_P1;PMS_P2;Temp;Humidity;BMP_temperature;BMP_pressure;BME280_temperature;BME280_humidity;BME280_pressure;Samples;Min_cycle;Max_cycle;Signal;HPM_P1;HPM_P2
2022/08/12 00:44:14;;;;;;;6.57;4.20;;;17.40;99.90;;;;;;7315422;32;20306;-65
2022/08/12 00:48:17;;;;;;;7.18;4.20;;;17.40;99.90;;;;;;7312920;32;20169;-63
2022/08/12 00:52:19;;;;;;;7.40;3.83;;;17.30;99.90;;;;;;7312238;32;20286;-64
2022/08/12 00:56:22;;;;;;;11.30;4.22;;;17.20;99.90;;;;;;7312782;32;20108;-65
2022/08/12 01:00:24;;;;;;;5.03;3.90;;;17.10;99.90;;;;;;7310864;32;20206;-65
2022/08/12 01:13:14;;;;;;;4.10;3.70;;;17.00;99.90;;;;;;7306020;32;20225;-64
2022/08/12 01:17:21;;;;;;;5.75;3.92;;;16.90;99.90;;;;;;7310490;32;20230;-62
2022/08/12 01:21:26;;;;;;;8.82;4.15;;;16.90;99.90;;;;;;7304547;32;20115;-65
2022/08/12 01:25:32;;;;;;;7.80;4.10;;;16.90;99.90;;;;;;7307686;32;20107;-65
2022/08/12 01:29:42;;;;;;;5.03;4.28;;;16.70;99.90;;;;;;7305904;32;20205;-65
2022/08/12 01:34:02;;;;;;;5.47;4.35;;;16.70;99.90;;;;;;7313423;32;20599;-64
2022/08/12 01:38:10;;;;;;;6.28;4.18;;;16.50;99.90;;;;;;7309240;32;20195;-65
2022/08/12 01:42:16;;;;;;;6.00;3.85;;;16.50;99.90;;;;;;7315309;32;20179;-61
2022/08/12 01:46:39;;;;;;;9.05;4.43;;;16.40;99.90;;;;;;7308485;32;20167;-63
2022/08/12 01:51:08;;;;;;;7.25;4.32;;;16.40;99.90;;;;;;7316497;32;20188;-64
2022/08/12 01:55:13;;;;;;;11.43;4.65;;;16.30;99.90;;;;;;7306559;32;20180;-65
2022/08/12 02:13:38;;;;;;;6.40;4.47;;;16.00;99.90;;;;;;7316976;32;20613;-65
2022/08/12 02:18:03;;;;;;;11.15;5.53;;;15.80;99.90;;;;;;7311527;32;20099;-65
2022/08/12 02:22:11;;;;;;;7.05;4.85;;;15.90;99.90;;;;;;7312368;32;20702;-64
2022/08/12 02:26:15;;;;;;;8.93;4.32;;;15.70;99.90;;;;;;7318986;32;20194;-65
2022/08/12 02:30:23;;;;;;;7.93;4.90;;;15.70;99.90;;;;;;7308803;32;20591;-65
2022/08/12 02:34:26;;;;;;;5.62;4.60;;;15.60;99.90;;;;;;7318368;32;20483;-65
2022/08/12 02:38:30;;;;;;;6.55;4.78;;;15.60;99.90;;;;;;7317489;32;20115;-65
2022/08/12 02:42:33;;;;;;;8.88;5.00;;;15.50;99.90;;;;;;7322059;32;20814;-65
2022/08/12 02:46:38;;;;;;;10.10;5.15;;;15.40;99.90;;;;;;7314920;32;20294;-64
2022/08/12 02:50:45;;;;;;;10.68;5.07;;;15.30;99.90;;;;;;7304935;32;20273;-65
2022/08/12 02:54:52;;;;;;;8.57;4.70;;;15.20;99.90;;;;;;7320028;32;20984;-64
2022/08/12 02:58:54;;;;;;;7.72;4.62;;;15.10;99.90;;;;;;7308729;32;20500;-62
2022/08/12 03:03:03;;;;;;;7.60;5.10;;;15.00;99.90;;;;;;7316228;32;20174;-62
2022/08/12 03:07:09;;;;;;;6.50;4.65;;;14.90;99.90;;;;;;7316153;32;20227;-64
2022/08/12 03:11:27;;;;;;;9.25;4.97;;;14.90;99.90;;;;;;7315988;32;20256;-64
2022/08/12 03:15:31;;;;;;;8.95;5.32;;;14.80;99.90;;;;;;7299657;32;20149;-64
2022/08/12 03:19:36;;;;;;;7.45;5.25;;;14.70;99.90;;;;;;7283639;32;20353;-64
2022/08/12 03:23:59;;;;;;;7.45;5.25;;;14.70;99.90;;;;;;7305780;32;20178;-65
2022/08/12 03:28:02;;;;;;;5.65;5.07;;;14.70;99.90;;;;;;7310112;32;20553;-65
2022/08/12 03:32:06;;;;;;;7.78;5.15;;;14.60;99.90;;;;;;7310861;32;20170;-64
2022/08/12 03:36:33;;;;;;;8.80;5.22;;;14.60;99.90;;;;;;7299022;32;20104;-64
2022/08/12 04:03:01;;;;;;;7.68;5.43;;;14.10;99.90;;;;;;7306958;32;20122;-65
2022/08/12 04:07:07;;;;;;;11.85;5.65;;;14.10;99.90;;;;;;7319543;32;20115;-64
2022/08/12 04:15:33;;;;;;;7.15;5.37;;;14.00;99.90;;;;;;7311980;32;20257;-64
2022/08/12 04:19:36;;;;;;;7.53;5.35;;;13.90;99.90;;;;;;7313882;32;20115;-64
2022/08/12 04:23:41;;;;;;;6.22;5.45;;;13.90;99.90;;;;;;7320007;32;20107;-64
2022/08/12 04:27:49;;;;;;;5.82;5.10;;;13.90;99.90;;;;;;7315551;32;20238;-64
2022/08/12 04:31:54;;;;;;;8.90;5.45;;;13.80;99.90;;;;;;7318342;32;20137;-65
2022/08/12 04:35:56;;;;;;;7.62;4.82;;;13.90;99.90;;;;;;7321310;32;20210;-65
2022/08/12 04:39:58;;;;;;;8.00;4.90;;;14.00;99.90;;;;;;7309888;32;20109;-64
2022/08/12 04:44:00;;;;;;;9.10;5.68;;;14.00;99.90;;;;;;7313403;32;20116;-64
2022/08/12 04:48:06;;;;;;;6.05;5.45;;;14.00;99.90;;;;;;7313658;32;20171;-65
2022/08/12 04:52:08;;;;;;;7.45;5.22;;;14.00;99.90;;;;;;7318444;32;20256;-65
2022/08/12 04:56:10;;;;;;;10.85;5.35;;;14.00;99.90;;;;;;7317220;32;21062;-65
2022/08/12 05:00:13;;;;;;;9.55;4.82;;;14.10;99.90;;;;;;7308345;32;20553;-64
2022/08/12 05:04:17;;;;;;;15.18;7.32;;;14.40;99.90;;;;;;7311107;32;20104;-68
2022/08/12 05:08:21;;;;;;;8.60;4.90;;;14.60;99.90;;;;;;7311651;32;20167;-68
2022/08/12 05:12:24;;;;;;;7.53;4.43;;;14.60;99.90;;;;;;7310343;32;20195;-67
2022/08/12 05:16:27;;;;;;;7.80;4.85;;;14.70;99.90;;;;;;7318620;32;20756;-67
2022/08/12 05:20:32;;;;;;;7.72;4.35;;;14.70;99.90;;;;;;7313903;32;20220;-66
2022/08/12 05:24:35;;;;;;;9.50;6.80;;;14.80;99.90;;;;;;7311594;32;20198;-67
2022/08/12 05:28:37;;;;;;;11.20;5.07;;;14.80;99.90;;;;;;7308816;32;20182;-66
2022/08/12 05:32:39;;;;;;;5.57;5.05;;;14.90;99.90;;;;;;7308683;32;20179;-61
2022/08/12 05:36:42;;;;;;;5.20;4.70;;;15.00;99.90;;;;;;7309842;32;20115;-62
2022/08/12 05:40:44;;;;;;;8.18;4.90;;;15.00;99.90;;;;;;7306434;32;20134;-61
2022/08/12 05:44:46;;;;;;;5.85;4.87;;;15.20;99.90;;;;;;7314829;32;20210;-62
2022/08/12 05:48:50;;;;;;;5.85;5.30;;;15.30;99.90;;;;;;7310744;32;20111;-63
2022/08/12 05:52:51;;;;;;;7.22;4.93;;;15.40;99.90;;;;;;7313093;32;20131;-63
2022/08/12 05:56:54;;;;;;;5.93;4.37;;;15.60;99.90;;;;;;7312415;32;20146;-62
2022/08/12 06:00:56;;;;;;;9.55;5.30;;;15.70;99.90;;;;;;7314232;32;20376;-63
2022/08/12 06:04:59;;;;;;;7.45;4.47;;;15.90;99.90;;;;;;7305750;32;20108;-63
2022/08/12 06:09:00;;;;;;;4.93;4.22;;;16.00;99.90;;;;;;7309085;32;20339;-63
2022/08/12 06:13:04;;;;;;;7.80;4.20;;;16.30;99.90;;;;;;7309574;32;20107;-62
2022/08/12 06:17:07;;;;;;;8.00;3.17;;;16.50;99.90;;;;;;7312927;32;20172;-63
2022/08/12 06:21:13;;;;;;;5.22;2.90;;;16.90;99.90;;;;;;7311484;32;20357;-63
2022/08/12 06:25:17;;;;;;;7.62;3.28;;;17.20;99.90;;;;;;7303566;32;20148;-63
2022/08/12 06:29:22;;;;;;;14.45;2.90;;;17.60;99.90;;;;;;7298354;32;20225;-62
2022/08/12 06:33:46;;;;;;;4.55;2.47;;;18.00;99.90;;;;;;7301336;32;20115;-64
2022/08/12 06:38:23;;;;;;;8.55;2.72;;;18.40;99.90;;;;;;7309553;32;20247;-63
2022/08/12 06:46:46;;;;;;;9.82;2.78;;;19.10;99.90;;;;;;7309060;32;20172;-66
2022/08/12 06:50:48;;;;;;;3.97;2.10;;;19.40;99.90;;;;;;7305483;32;20180;-65
2022/08/12 06:54:50;;;;;;;7.32;2.40;;;19.80;99.90;;;;;;7312634;32;20615;-66
2022/08/12 06:58:52;;;;;;;6.15;2.30;;;20.40;99.90;;;;;;7312092;32;20133;-66
2022/08/12 07:02:54;;;;;;;2.47;2.03;;;21.00;99.90;;;;;;7308349;32;20415;-67
2022/08/12 07:06:56;;;;;;;7.53;1.80;;;21.30;99.90;;;;;;7305822;32;20127;-66
2022/08/12 07:11:01;;;;;;;3.20;1.83;;;21.80;99.90;;;;;;7313478;32;20116;-67
2022/08/12 07:15:03;;;;;;;5.90;2.20;;;22.00;99.90;;;;;;7314061;32;20130;-66
2022/08/12 07:19:04;;;;;;;3.78;2.00;;;22.20;99.90;;;;;;7311604;32;20175;-66
2022/08/12 07:23:07;;;;;;;9.23;2.30;;;22.50;99.90;;;;;;7317590;32;20145;-67
2022/08/12 07:27:09;;;;;;;2.40;1.90;;;22.60;99.90;;;;;;7315555;32;20715;-66
2022/08/12 07:31:11;;;;;;;6.37;2.15;;;22.70;99.90;;;;;;7309415;32;20169;-65
2022/08/12 07:35:19;;;;;;;;;;;22.90;99.90;;;;;;7315698;32;20161;-67
2022/08/12 07:39:20;;;;;;;7.53;2.15;;;22.90;99.90;;;;;;7313405;32;20206;-66
2022/08/12 07:43:23;;;;;;;5.72;2.67;;;23.10;99.90;;;;;;7300809;32;20636;-67
2022/08/12 07:47:26;;;;;;;4.70;2.37;;;23.20;99.90;;;;;;7314069;32;20138;-66
2022/08/12 07:51:28;;;;;;;4.40;1.87;;;23.30;99.90;;;;;;7313570;32;20184;-66
2022/08/12 07:55:30;;;;;;;12.13;2.15;;;23.40;99.90;;;;;;7314303;32;20204;-67
2022/08/12 07:59:33;;;;;;;4.18;1.90;;;23.50;99.90;;;;;;7311461;32;20135;-67
2022/08/12 08:03:36;;;;;;;9.23;2.00;;;23.80;98.10;;;;;;7317444;32;20139;-67
2022/08/12 08:07:52;;;;;;;5.43;2.12;;;24.10;97.40;;;;;;7312050;32;20296;-67
2022/08/12 08:16:20;;;;;;;5.97;2.05;;;24.50;97.30;;;;;;7313995;32;20152;-67
2022/08/12 08:20:27;;;;;;;6.93;2.15;;;24.70;94.00;;;;;;7316855;32;20293;-66
2022/08/12 08:24:30;;;;;;;6.43;2.08;;;24.80;93.90;;;;;;7316605;32;20148;-65
2022/08/12 08:28:35;;;;;;;6.07;2.03;;;25.10;93.50;;;;;;7309561;32;20237;-66
2022/08/12 08:32:38;;;;;;;7.22;2.50;;;25.30;94.00;;;;;;7313681;32;20334;-67
2022/08/12 08:36:40;;;;;;;2.33;1.60;;;25.30;91.30;;;;;;7311834;32;20115;-67
2022/08/12 08:45:11;;;;;;;3.45;1.70;;;25.90;88.80;;;;;;7313703;32;20163;-67
2022/08/12 08:49:14;;;;;;;3.97;1.48;;;26.70;87.10;;;;;;7309226;32;20144;-66
2022/08/12 08:53:17;;;;;;;9.23;1.70;;;27.40;80.30;;;;;;7304135;32;20229;-67
2022/08/12 08:57:19;;;;;;;4.80;1.83;;;28.10;76.40;;;;;;7313398;32;20204;-67
2022/08/12 09:01:21;;;;;;;9.32;1.50;;;29.00;67.70;;;;;;7308939;32;20689;-68
2022/08/12 09:05:23;;;;;;;5.93;1.50;;;30.00;66.30;;;;;;7309107;32;20144;-67
2022/08/12 09:09:26;;;;;;;5.75;1.40;;;30.50;59.40;;;;;;7314818;32;20216;-70
2022/08/12 09:13:48;;;;;;;4.40;1.30;;;30.80;60.30;;;;;;7322913;32;20178;-69
2022/08/12 09:18:10;;;;;;;6.60;1.55;;;31.60;56.40;;;;;;7326133;32;20149;-70
2022/08/12 09:22:12;;;;;;;4.85;1.42;;;31.60;52.30;;;;;;7309304;32;20246;-69
2022/08/12 09:26:21;;;;;;;4.65;1.73;;;31.60;52.00;;;;;;7315326;32;20141;-69
2022/08/12 09:30:29;;;;;;;4.07;1.60;;;31.60;51.60;;;;;;7320635;32;20175;-69
2022/08/12 09:34:44;;;;;;;4.75;1.70;;;31.70;51.60;;;;;;7305543;32;20181;-71
2022/08/12 09:38:51;;;;;;;5.85;1.70;;;32.40;56.10;;;;;;7307349;32;20112;-69
2022/08/12 09:47:27;;;;;;;4.12;1.50;;;33.10;49.50;;;;;;7312066;32;20165;-69
2022/08/12 09:51:32;;;;;;;3.45;1.52;;;33.60;49.90;;;;;;7310683;32;20226;-70
2022/08/12 09:55:46;;;;;;;4.95;1.70;;;33.30;48.90;;;;;;7310059;32;20253;-69
2022/08/12 10:00:10;;;;;;;4.85;1.30;;;33.30;50.60;;;;;;7313980;32;20437;-69
2022/08/12 10:04:18;;;;;;;7.93;1.55;;;32.90;48.50;;;;;;7310804;32;20226;-68
2022/08/12 10:08:22;;;;;;;3.80;1.40;;;33.10;47.00;;;;;;7311541;32;20130;-68
2022/08/12 10:17:05;;;;;;;5.95;1.70;;;32.20;48.40;;;;;;7312116;32;20627;-68
2022/08/12 10:21:18;;;;;;;3.97;1.50;;;32.00;46.90;;;;;;7309779;32;20136;-69
2022/08/12 10:30:01;;;;;;;3.10;1.25;;;31.70;47.50;;;;;;7313437;32;20203;-68
2022/08/12 10:34:24;;;;;;;3.85;1.75;;;31.60;46.90;;;;;;7312163;32;20154;-69
2022/08/12 10:38:28;;;;;;;3.03;1.50;;;32.20;46.90;;;;;;7314164;32;20246;-69
2022/08/12 10:47:03;;;;;;;5.12;1.30;;;32.60;48.90;;;;;;7312323;32;20115;-69
2022/08/12 10:51:29;;;;;;;2.53;1.65;;;32.60;46.70;;;;;;7312678;32;20233;-69
2022/08/12 10:55:53;;;;;;;3.85;1.40;;;32.90;49.30;;;;;;7315879;32;20209;-69
2022/08/12 10:59:59;;;;;;;2.97;1.60;;;33.00;51.20;;;;;;7321572;32;20267;-69
2022/08/12 11:04:21;;;;;;;4.37;1.58;;;33.10;48.50;;;;;;7320839;32;20231;-69
2022/08/12 11:08:44;;;;;;;3.62;1.45;;;33.20;48.90;;;;;;7314199;32;20104;-68
2022/08/12 11:12:49;;;;;;;5.20;1.70;;;32.50;45.20;;;;;;7316786;32;20202;-68
2022/08/12 11:17:06;;;;;;;6.68;1.70;;;31.90;47.60;;;;;;7317940;32;20715;-69
2022/08/12 11:21:27;;;;;;;3.65;1.70;;;31.90;47.00;;;;;;7317778;32;20198;-68
2022/08/12 11:25:49;;;;;;;5.55;1.75;;;31.40;47.60;;;;;;7320355;32;20119;-69
2022/08/12 11:29:59;;;;;;;2.37;1.55;;;31.30;46.10;;;;;;7312942;32;21454;-68
2022/08/12 11:34:07;;;;;;;3.50;1.58;;;31.60;45.60;;;;;;7315042;32;20190;-69
2022/08/12 11:38:29;;;;;;;5.50;1.52;;;31.40;46.10;;;;;;7317343;32;20653;-68
2022/08/12 11:42:30;;;;;;;3.97;1.60;;;31.50;47.90;;;;;;7318786;32;20131;-68
2022/08/12 11:46:37;;;;;;;4.70;1.50;;;31.80;46.80;;;;;;7318454;32;20378;-69
2022/08/12 11:50:42;;;;;;;6.23;1.27;;;31.60;46.50;;;;;;7316991;32;20129;-69
2022/08/12 11:54:44;;;;;;;4.95;1.73;;;31.70;46.80;;;;;;7310509;32;20108;-69
2022/08/12 11:58:52;;;;;;;3.72;1.60;;;31.70;45.30;;;;;;7317445;32;20182;-69
2022/08/12 12:03:14;;;;;;;8.80;1.67;;;31.70;44.70;;;;;;7312923;32;20189;-68
2022/08/12 12:07:18;;;;;;;7.03;1.75;;;31.70;44.90;;;;;;7317179;32;20191;-69
2022/08/12 12:11:21;;;;;;;5.22;1.50;;;31.60;45.70;;;;;;7309495;32;20130;-69
2022/08/12 12:15:23;;;;;;;7.00;1.48;;;31.80;45.40;;;;;;7314509;32;20111;-69
2022/08/12 12:19:45;;;;;;;3.33;1.65;;;32.20;45.20;;;;;;7311814;32;20138;-68
2022/08/12 12:23:47;;;;;;;4.53;1.50;;;32.20;45.70;;;;;;7310855;32;20652;-69
2022/08/12 12:27:53;;;;;;;2.28;1.40;;;32.00;44.50;;;;;;7311672;32;20171;-68
2022/08/12 12:32:07;;;;;;;5.40;1.50;;;31.60;45.30;;;;;;7308964;32;20131;-69
2022/08/12 12:36:12;;;;;;;3.13;1.47;;;31.50;44.00;;;;;;7310140;32;20131;-66
2022/08/12 12:40:25;;;;;;;5.90;1.40;;;31.60;43.90;;;;;;7311789;32;20111;-69
2022/08/12 12:44:32;;;;;;;3.70;1.40;;;31.50;47.00;;;;;;7315226;32;20120;-69
2022/08/12 12:48:54;;;;;;;4.30;1.42;;;31.80;44.60;;;;;;7314621;32;20104;-69
2022/08/12 12:52:56;;;;;;;4.78;1.23;;;31.70;45.30;;;;;;7311409;32;20405;-68
2022/08/12 12:56:59;;;;;;;3.78;1.48;;;31.90;43.90;;;;;;7308811;32;20127;-69
2022/08/12 13:01:01;;;;;;;3.45;1.65;;;32.00;43.10;;;;;;7308562;32;20226;-69
2022/08/12 13:05:31;;;;;;;4.78;1.65;;;31.90;42.80;;;;;;7307578;32;20511;-69
2022/08/12 13:09:53;;;;;;;3.55;1.40;;;32.10;44.10;;;;;;7309466;32;20122;-69
2022/08/12 13:14:02;;;;;;;3.08;1.00;;;32.00;42.90;;;;;;7311909;32;20099;-68
2022/08/12 13:18:14;;;;;;;2.40;1.45;;;32.30;43.30;;;;;;7309396;32;20151;-69
2022/08/12 13:22:17;;;;;;;2.83;1.33;;;32.50;43.90;;;;;;7313341;32;20208;-69
2022/08/12 13:26:31;;;;;;;6.50;1.70;;;32.50;42.10;;;;;;7307600;32;20162;-69
2022/08/12 13:30:35;;;;;;;3.70;1.37;;;32.20;42.60;;;;;;7300370;32;20119;-69
2022/08/12 13:34:37;;;;;;;2.67;1.02;;;32.40;44.20;;;;;;7309030;32;20181;-69
2022/08/12 13:38:41;;;;;;;2.30;1.20;;;32.30;42.60;;;;;;7308731;32;20468;-70
2022/08/12 13:42:47;;;;;;;4.97;1.50;;;32.50;42.20;;;;;;7309511;32;20111;-69
2022/08/12 13:46:51;;;;;;;3.20;1.25;;;32.30;41.00;;;;;;7304655;32;20108;-68
2022/08/12 13:51:01;;;;;;;3.10;1.75;;;32.30;40.30;;;;;;7311565;32;20191;-68
2022/08/12 13:55:05;;;;;;;6.80;1.40;;;32.40;40.70;;;;;;7308118;32;20743;-69
2022/08/12 13:59:07;;;;;;;4.57;1.20;;;32.20;39.60;;;;;;7310489;32;20108;-68
2022/08/12 14:03:11;;;;;;;1.80;1.50;;;32.00;40.20;;;;;;7305626;32;20264;-69
2022/08/12 14:07:12;;;;;;;1.48;1.15;;;32.00;41.30;;;;;;7310051;32;20134;-68
2022/08/12 14:11:14;;;;;;;6.43;1.37;;;31.90;40.30;;;;;;7307389;32;20120;-69
2022/08/12 14:15:16;;;;;;;2.92;1.30;;;31.90;41.80;;;;;;7310089;32;20534;-69
2022/08/12 14:19:18;;;;;;;3.60;1.48;;;32.00;42.40;;;;;;7308551;32;20888;-70
2022/08/12 14:23:30;;;;;;;4.47;1.35;;;31.90;41.10;;;;;;7310291;32;20111;-69
2022/08/12 14:27:53;;;;;;;4.37;1.20;;;31.60;41.10;;;;;;7308613;32;20796;-70
2022/08/12 14:32:06;;;;;;;6.95;3.12;;;31.50;42.00;;;;;;7306828;32;20198;-69
2022/08/12 14:36:22;;;;;;;3.12;1.30;;;32.00;42.70;;;;;;7310814;32;20123;-70
2022/08/12 14:40:27;;;;;;;4.03;1.62;;;32.10;41.70;;;;;;7306573;32;20143;-70
2022/08/12 14:44:29;;;;;;;5.25;1.25;;;32.20;41.20;;;;;;7295960;32;20176;-69
2022/08/12 14:48:53;;;;;;;1.70;1.10;;;31.90;41.50;;;;;;7307376;32;20151;-70
2022/08/12 14:52:54;;;;;;;2.75;1.20;;;31.70;43.20;;;;;;7308767;32;20543;-70
2022/08/12 14:57:18;;;;;;;3.45;1.30;;;31.70;42.70;;;;;;7312631;32;20206;-70
2022/08/12 15:01:43;;;;;;;2.20;1.00;;;31.30;43.50;;;;;;7311817;32;20205;-69
2022/08/12 15:05:48;;;;;;;4.15;1.20;;;31.30;43.80;;;;;;7313553;32;20448;-70
2022/08/12 15:10:12;;;;;;;10.82;5.10;;;31.10;42.10;;;;;;7312418;32;20104;-69
2022/08/12 15:14:14;;;;;;;2.67;1.20;;;31.00;42.40;;;;;;7314565;32;20179;-69
2022/08/12 15:18:21;;;;;;;3.03;0.93;;;30.80;43.30;;;;;;7311435;32;20231;-70
2022/08/12 15:22:23;;;;;;;3.72;1.33;;;30.80;43.40;;;;;;7311831;32;20186;-70
2022/08/12 15:26:40;;;;;;;;;;;30.80;43.80;;;;;;7315776;32;20135;-68
2022/08/12 15:30:42;;;;;;;1.33;1.20;;;30.60;42.00;;;;;;7312077;32;20054;-70
2022/08/12 15:34:45;;;;;;;2.15;1.00;;;30.60;42.00;;;;;;7311681;32;20111;-68
2022/08/12 15:38:50;;;;;;;3.28;1.52;;;30.60;43.50;;;;;;7311927;32;20108;-69
2022/08/12 15:42:53;;;;;;;6.28;1.55;;;30.30;43.70;;;;;;7314571;32;20136;-68
2022/08/12 15:46:55;;;;;;;5.03;1.35;;;30.20;45.00;;;;;;7311169;32;20503;-70
2022/08/12 15:50:58;;;;;;;4.65;1.80;;;30.00;44.90;;;;;;7315090;32;20143;-69
2022/08/12 15:54:59;;;;;;;11.60;7.60;;;30.00;44.70;;;;;;7315191;32;20206;-69
2022/08/12 15:59:14;;;;;;;3.33;1.45;;;30.00;44.80;;;;;;7326068;32;20130;-69
2022/08/12 16:03:27;;;;;;;4.10;1.58;;;29.80;45.00;;;;;;7321866;32;20128;-68
2022/08/12 16:07:49;;;;;;;3.08;1.42;;;29.80;45.80;;;;;;7319573;32;20120;-69
2022/08/12 16:11:51;;;;;;;3.45;1.30;;;29.70;45.60;;;;;;7314394;32;20754;-68
2022/08/12 16:15:53;;;;;;;4.95;1.35;;;29.60;44.40;;;;;;7302983;32;20104;-68
2022/08/12 16:20:05;;;;;;;3.22;1.30;;;29.60;44.10;;;;;;7318877;32;20988;-68
2022/08/12 16:24:07;;;;;;;2.25;0.95;;;29.50;44.60;;;;;;7311673;32;20211;-70
2022/08/12 16:28:11;;;;;;;5.37;1.55;;;29.50;44.30;;;;;;7299913;32;20126;-69
2022/08/12 16:32:16;;;;;;;3.10;1.20;;;29.40;44.90;;;;;;7317867;32;20126;-69
2022/08/12 16:36:20;;;;;;;6.68;1.40;;;29.30;44.20;;;;;;7317261;32;20230;-67
2022/08/12 16:40:30;;;;;;;5.53;1.50;;;29.30;44.30;;;;;;7315999;32;20206;-68
2022/08/12 16:44:47;;;;;;;4.30;2.45;;;29.40;44.10;;;;;;7316206;32;20111;-68
2022/08/12 16:48:52;;;;;;;2.30;0.98;;;29.30;43.60;;;;;;7299801;32;20138;-68
2022/08/12 16:53:16;;;;;;;4.62;1.35;;;29.30;44.70;;;;;;7310403;32;20116;-65
2022/08/12 16:57:19;;;;;;;3.25;1.40;;;29.30;45.00;;;;;;7318348;32;20261;-64
2022/08/12 17:01:36;;;;;;;6.20;1.27;;;29.10;44.30;;;;;;7308730;32;20245;-67
2022/08/12 17:05:39;;;;;;;3.30;1.10;;;29.10;45.50;;;;;;7313976;32;20162;-63
2022/08/12 17:09:50;;;;;;;2.08;1.58;;;29.00;44.20;;;;;;7312250;32;20168;-64
2022/08/12 17:13:54;;;;;;;5.87;1.58;;;29.00;44.50;;;;;;7314160;32;20107;-64
2022/08/12 17:17:56;;;;;;;4.60;1.50;;;29.00;44.30;;;;;;7312525;32;20107;-68
2022/08/12 17:22:20;;;;;;;1.85;1.17;;;28.70;44.10;;;;;;7316424;32;20481;-68
2022/08/12 17:26:27;;;;;;;15.65;12.45;;;28.70;44.20;;;;;;7317315;32;20292;-68
2022/08/12 17:30:47;;;;;;;3.92;1.30;;;28.70;44.20;;;;;;7313642;32;20135;-67
2022/08/12 17:39:21;;;;;;;3.67;1.60;;;28.40;44.40;;;;;;7319641;32;20131;-68
2022/08/12 17:43:24;;;;;;;3.58;1.40;;;28.30;44.50;;;;;;7316893;32;20144;-69
2022/08/12 17:47:48;;;;;;;4.72;1.35;;;28.20;45.00;;;;;;7309924;32;20474;-68
2022/08/12 17:52:07;;;;;;;4.07;1.40;;;28.20;44.80;;;;;;7312485;32;20283;-68
2022/08/12 17:56:11;;;;;;;2.53;1.27;;;28.20;44.60;;;;;;7317288;32;20265;-67
2022/08/12 18:00:17;;;;;;;4.25;1.70;;;28.20;45.30;;;;;;7316928;32;20111;-69
2022/08/12 18:04:19;;;;;;;3.90;1.85;;;28.00;45.40;;;;;;7314264;32;20275;-67
2022/08/12 18:08:38;;;;;;;;;;;27.80;45.30;;;;;;7307095;32;20123;-67
2022/08/12 18:12:43;;;;;;;3.85;1.05;;;27.80;45.60;;;;;;7301241;32;20372;-68
2022/08/12 18:16:53;;;;;;;3.72;1.00;;;27.70;45.80;;;;;;7310391;32;20100;-68
2022/08/12 18:20:56;;;;;;;1.95;1.10;;;27.60;46.10;;;;;;7313020;32;20623;-67
2022/08/12 18:25:00;;;;;;;1.98;1.10;;;27.40;46.50;;;;;;7315450;32;20327;-68
2022/08/12 18:29:06;;;;;;;4.00;1.17;;;27.20;47.10;;;;;;7312517;32;20778;-67
2022/08/12 18:33:10;;;;;;;2.45;1.10;;;27.00;47.40;;;;;;7312791;32;20575;-67
2022/08/12 18:37:14;;;;;;;5.12;2.12;;;27.00;46.90;;;;;;7306979;32;20136;-67
2022/08/12 18:41:38;;;;;;;6.12;1.40;;;26.80;48.60;;;;;;7310846;32;20134;-69
2022/08/12 18:45:46;;;;;;;5.82;1.20;;;26.60;48.00;;;;;;7311816;32;20107;-70
2022/08/12 18:49:57;;;;;;;3.55;1.27;;;26.50;48.80;;;;;;7311998;32;20144;-67
2022/08/12 18:54:02;;;;;;;1.70;1.20;;;26.20;49.70;;;;;;7307069;32;20207;-68
2022/08/12 18:58:12;;;;;;;8.25;1.50;;;26.00;50.30;;;;;;7306338;32;20107;-65
2022/08/12 19:02:23;;;;;;;4.50;1.60;;;25.70;54.10;;;;;;7308413;32;20261;-70
2022/08/12 19:06:40;;;;;;;5.18;1.73;;;25.30;56.80;;;;;;7295865;32;20233;-66
2022/08/12 19:10:48;;;;;;;3.78;1.20;;;25.00;57.30;;;;;;7288454;32;20128;-68
2022/08/12 19:14:53;;;;;;;2.70;1.10;;;24.80;57.60;;;;;;7314282;32;20104;-69
2022/08/12 19:19:08;;;;;;;1.70;1.00;;;24.50;58.90;;;;;;7315192;32;20128;-68
2022/08/12 19:23:10;;;;;;;3.53;1.20;;;24.20;61.00;;;;;;7317086;32;20221;-68
2022/08/12 19:27:22;;;;;;;6.03;1.50;;;23.80;65.40;;;;;;7314426;32;20233;-67
2022/08/12 19:36:03;;;;;;;5.47;1.48;;;23.10;72.50;;;;;;7315086;32;20120;-69
2022/08/12 19:40:27;;;;;;;4.05;1.62;;;22.90;74.90;;;;;;7316468;32;20251;-69
2022/08/12 19:44:36;;;;;;;5.60;1.70;;;22.70;83.00;;;;;;7320515;32;20151;-69
2022/08/12 19:48:39;;;;;;;3.62;1.48;;;22.50;86.70;;;;;;7312933;32;20176;-65
2022/08/12 19:52:43;;;;;;;6.40;1.52;;;22.30;85.90;;;;;;7311016;32;20289;-67
2022/08/12 19:56:49;;;;;;;9.77;1.70;;;22.10;89.80;;;;;;7320805;32;20194;-67
2022/08/12 20:00:51;;;;;;;3.37;1.65;;;21.90;92.50;;;;;;7310701;32;20108;-66
2022/08/12 20:04:56;;;;;;;6.40;1.80;;;21.70;92.60;;;;;;7314355;32;20107;-67
2022/08/12 20:09:18;;;;;;;5.00;1.60;;;21.50;93.50;;;;;;7316155;32;20145;-68
2022/08/12 20:13:20;;;;;;;6.47;2.40;;;21.40;95.00;;;;;;7313123;32;20222;-67
2022/08/12 20:17:37;;;;;;;;;;;21.30;95.80;;;;;;7314491;32;20258;-67
2022/08/12 20:21:52;;;;;;;3.12;1.60;;;21.20;96.50;;;;;;7320179;32;20170;-67
2022/08/12 20:25:56;;;;;;;5.70;1.50;;;21.10;96.80;;;;;;7313599;32;20125;-65
2022/08/12 20:30:06;;;;;;;5.22;1.62;;;21.00;96.50;;;;;;7315151;32;20480;-67
2022/08/12 20:34:08;;;;;;;7.85;1.67;;;21.00;98.80;;;;;;7301502;32;20147;-67
2022/08/12 20:38:13;;;;;;;4.55;1.58;;;20.80;99.40;;;;;;7319208;32;20107;-67
2022/08/12 20:42:30;;;;;;;5.07;1.40;;;20.70;99.80;;;;;;7318408;32;20221;-66
2022/08/12 20:46:32;;;;;;;5.03;1.42;;;20.60;99.90;;;;;;7314035;32;20701;-67
2022/08/12 20:50:35;;;;;;;8.45;1.90;;;20.40;99.90;;;;;;7300936;32;20115;-68
2022/08/12 20:54:39;;;;;;;4.62;1.33;;;20.30;99.90;;;;;;7301777;32;20115;-68
2022/08/12 20:58:56;;;;;;;3.47;1.60;;;20.30;99.90;;;;;;7305467;32;20247;-67
2022/08/12 21:06:55;;;;;;;3.55;1.48;;;20.10;99.90;;;;;;7314078;32;20535;-67
2022/08/12 21:07:20;;;;;;;8.48;2.30;;;20.00;99.90;;;;;;7299678;32;20295;-67
2022/08/12 21:11:24;;;;;;;5.53;1.45;;;19.90;99.90;;;;;;7313227;32;20131;-67
2022/08/12 21:15:26;;;;;;;8.77;1.45;;;19.80;99.90;;;;;;7299871;32;20660;-67
2022/08/12 21:19:48;;;;;;;3.70;1.30;;;19.70;99.90;;;;;;7308595;32;20661;-66
2022/08/12 21:23:55;;;;;;;8.23;1.60;;;19.70;99.90;;;;;;7296060;32;20258;-66
2022/08/12 21:28:06;;;;;;;5.07;1.70;;;19.50;99.90;;;;;;7309801;32;20375;-67
2022/08/12 21:32:09;;;;;;;7.30;1.85;;;19.50;99.90;;;;;;7303970;32;20157;-65
2022/08/12 21:36:32;;;;;;;6.22;1.65;;;19.40;99.90;;;;;;7318015;32;20271;-65
2022/08/12 21:40:36;;;;;;;5.22;1.50;;;19.30;99.90;;;;;;7312001;32;20399;-65
2022/08/12 21:44:53;;;;;;;7.13;1.77;;;19.20;99.90;;;;;;7313181;32;20190;-65
2022/08/12 21:49:17;;;;;;;7.65;1.77;;;19.00;99.90;;;;;;7314186;32;20315;-65
2022/08/12 21:53:40;;;;;;;4.45;1.70;;;19.00;99.90;;;;;;7314736;32;20199;-65
2022/08/12 21:58:13;;;;;;;4.90;1.20;;;18.90;99.90;;;;;;7318061;32;20174;-64
2022/08/12 22:06:38;;;;;;;4.30;1.50;;;19.00;99.90;;;;;;7321466;32;20292;-65
2022/08/12 22:10:45;;;;;;;8.13;1.83;;;19.10;99.90;;;;;;7318066;32;20137;-64
2022/08/12 22:14:47;;;;;;;2.30;1.27;;;19.10;99.90;;;;;;7312739;32;20557;-63
2022/08/12 22:18:51;;;;;;;4.72;1.27;;;19.10;99.90;;;;;;7312074;32;20167;-63
2022/08/12 22:22:52;;;;;;;2.65;1.50;;;19.20;99.90;;;;;;7318080;32;20160;-65
2022/08/12 22:27:03;;;;;;;6.15;1.10;;;19.20;99.90;;;;;;7312699;32;20112;-64
2022/08/12 22:31:25;;;;;;;5.60;1.37;;;19.20;99.90;;;;;;7315533;32;20253;-64
2022/08/12 22:35:30;;;;;;;1.98;1.00;;;19.20;99.90;;;;;;7310806;32;20100;-63
2022/08/12 22:39:52;;;;;;;3.65;1.05;;;19.50;99.90;;;;;;7303341;32;20195;-64
2022/08/12 22:48:15;;;;;;;2.20;0.90;;;19.90;99.90;;;;;;7318657;32;20179;-64
2022/08/12 22:52:27;;;;;;;1.10;0.85;;;20.30;99.80;;;;;;7322963;32;20618;-64
2022/08/12 22:56:34;;;;;;;1.55;0.80;;;20.50;97.50;;;;;;7323190;32;20674;-64
2022/08/12 23:00:37;;;;;;;4.95;1.00;;;20.70;95.60;;;;;;7314484;32;20100;-64
2022/08/12 23:04:39;;;;;;;3.40;0.75;;;21.20;94.10;;;;;;7320835;32;20141;-65
2022/08/12 23:08:44;;;;;;;3.40;0.70;;;21.40;92.30;;;;;;7308035;32;20187;-63
2022/08/12 23:17:06;;;;;;;1.42;0.70;;;21.70;91.10;;;;;;7301241;32;20501;-64
2022/08/12 23:21:23;;;;;;;2.60;0.70;;;21.70;90.40;;;;;;7304157;32;22195;-64
2022/08/12 23:25:25;;;;;;;3.33;0.70;;;22.00;88.60;;;;;;7317041;32;20130;-64
2022/08/12 23:29:47;;;;;;;3.15;0.85;;;21.90;87.30;;;;;;7310160;32;20309;-65
2022/08/12 23:34:13;;;;;;;1.37;0.57;;;21.90;87.60;;;;;;7316120;32;20602;-64
2022/08/12 23:38:15;;;;;;;2.90;1.10;;;21.90;86.90;;;;;;7311062;32;20111;-64
2022/08/12 23:42:32;;;;;;;2.40;0.70;;;22.00;86.60;;;;;;7316639;32;20226;-64
2022/08/12 23:46:35;;;;;;;3.72;0.93;;;21.90;87.30;;;;;;7303626;32;20224;-62
2022/08/12 23:50:40;;;;;;;3.42;0.70;;;21.90;86.00;;;;;;7312702;32;20230;-64
2022/08/12 23:54:46;;;;;;;0.88;0.62;;;21.80;87.40;;;;;;7320399;32;20165;-62
2022/08/12 23:59:09;;;;;;;2.47;0.70;;;21.70;87.00;;;;;;7309238;32;20112;-63
